Terminal Aerodrome Forecast
Issued by NWS Spokane, WA

Home | Current Version | Previous Version | Text Only | Print | Product List | Glossary On
Versions: 1 2 3 4 5 6 7 8 9 10 11 12 13 14 15 16 17 18 19 20 21 22 23 24 25 26 27 28 29 30
000
FTUS46 KOTX 270520
TAFEAT
TAF
KEAT 270520Z 2706/2806 10005KT P6SM VCSH BKN040 OVC060
     FM270800 10003KT P6SM -RA OVC025
     FM271600 30005KT P6SM SCT030 BKN050
     FM272100 30009KT P6SM VCSH SCT060 BKN120
     FM280200 31012G18KT P6SM BKN060 OVC100=

USA.gov is the U.S. government's official web portal to all federal, state and local government web resources and services.